Time;durP1;ratioP1;P1;durP2;ratioP2;P2;SDS_P1;SDS_P2;PMS_P1;PMS_P2;Temp;Humidity;BMP_temperature;BMP_pressure;BME280_temperature;BME280_humidity;BME280_pressure;Samples;Min_cycle;Max_cycle;Signal;HPM_P1;HPM_P2
2020/12/12 00:01:35;;;;;;;24.77;16.97;;;5.10;99.90;;;;;;5065947;28;20428;-93
2020/12/12 00:04:01;;;;;;;26.73;18.20;;;5.10;99.90;;;;;;5063178;28;20433;-90
2020/12/12 00:06:28;;;;;;;20.20;16.73;;;5.10;99.90;;;;;;5056272;28;21037;-91
2020/12/12 00:08:54;;;;;;;22.83;17.70;;;5.10;99.90;;;;;;5050440;28;20425;-90
2020/12/12 00:11:21;;;;;;;21.33;17.50;;;5.10;99.90;;;;;;5048973;28;20478;-90
2020/12/12 00:13:48;;;;;;;25.40;18.70;;;5.10;99.90;;;;;;5044272;28;20830;-89
2020/12/12 00:16:16;;;;;;;24.37;18.77;;;5.10;99.90;;;;;;5045124;28;21045;-89
2020/12/12 00:18:42;;;;;;;24.13;18.50;;;5.20;99.90;;;;;;5055071;28;20419;-91
2020/12/12 00:21:08;;;;;;;21.90;16.87;;;5.10;99.90;;;;;;5048635;28;20472;-90
2020/12/12 00:23:37;;;;;;;22.63;17.30;;;5.20;99.90;;;;;;5045739;28;20448;-90
2020/12/12 00:26:03;;;;;;;23.60;17.13;;;5.20;99.90;;;;;;5046946;28;20569;-91
2020/12/12 00:28:31;;;;;;;19.67;15.67;;;5.20;99.90;;;;;;5049304;28;20444;-90
2020/12/12 00:30:57;;;;;;;24.73;18.10;;;5.20;99.90;;;;;;5048650;28;20548;-90
2020/12/12 00:33:24;;;;;;;20.37;14.67;;;5.20;99.90;;;;;;5042582;28;20449;-90
2020/12/12 00:35:50;;;;;;;20.23;14.97;;;5.20;99.90;;;;;;5045597;28;20459;-90
2020/12/12 00:38:17;;;;;;;19.20;14.27;;;5.20;99.90;;;;;;5037417;28;20523;-90
2020/12/12 00:40:43;;;;;;;15.73;13.60;;;5.30;99.90;;;;;;5047047;28;20447;-90
2020/12/12 00:43:09;;;;;;;18.83;14.63;;;5.40;99.90;;;;;;5052463;28;20448;-90
2020/12/12 00:45:35;;;;;;;19.57;15.60;;;5.40;99.90;;;;;;5038319;28;20437;-90
2020/12/12 00:48:02;;;;;;;16.73;13.90;;;5.40;99.90;;;;;;5038633;28;20456;-91
2020/12/12 00:50:29;;;;;;;23.10;15.80;;;5.40;99.90;;;;;;5041034;28;20453;-90
2020/12/12 00:52:55;;;;;;;17.37;14.70;;;5.40;99.90;;;;;;5052809;28;20456;-90
2020/12/12 00:55:21;;;;;;;17.63;13.50;;;5.40;99.90;;;;;;5054230;28;20443;-90
2020/12/12 00:57:47;;;;;;;20.07;14.80;;;5.50;99.90;;;;;;5056304;28;20451;-90
2020/12/12 01:00:14;;;;;;;18.87;15.40;;;5.50;99.90;;;;;;5039785;28;20453;-90
2020/12/12 01:02:40;;;;;;;17.33;14.67;;;5.50;99.90;;;;;;5044049;28;20451;-90
2020/12/12 01:05:06;;;;;;;21.67;14.33;;;5.50;99.90;;;;;;5049977;28;20462;-90
2020/12/12 01:07:33;;;;;;;18.10;14.90;;;5.60;99.90;;;;;;5044708;28;20483;-90
2020/12/12 01:09:59;;;;;;;17.33;14.60;;;5.60;99.90;;;;;;5036571;28;20480;-90
2020/12/12 01:12:26;;;;;;;18.73;14.37;;;5.60;99.90;;;;;;5036389;28;20460;-90
2020/12/12 01:14:52;;;;;;;20.03;14.90;;;5.60;99.90;;;;;;5049255;28;20456;-90
2020/12/12 01:17:18;;;;;;;15.90;13.60;;;5.60;99.90;;;;;;5049904;28;20467;-90
2020/12/12 01:19:44;;;;;;;19.27;15.10;;;5.60;99.90;;;;;;5043312;28;20472;-90
2020/12/12 01:22:10;;;;;;;19.97;14.93;;;5.70;99.90;;;;;;5035717;28;20436;-90
2020/12/12 01:24:38;;;;;;;20.10;14.97;;;5.70;99.90;;;;;;5053147;28;20448;-90
2020/12/12 01:27:04;;;;;;;18.00;13.53;;;5.70;99.90;;;;;;5054548;28;20471;-88
2020/12/12 01:29:30;;;;;;;19.67;15.80;;;5.70;99.90;;;;;;5056951;28;20452;-88
2020/12/12 01:31:56;;;;;;;16.30;13.90;;;5.70;99.90;;;;;;5051365;28;20463;-90
2020/12/12 01:34:23;;;;;;;18.63;14.90;;;5.70;99.90;;;;;;5043945;28;20440;-90
2020/12/12 01:36:49;;;;;;;19.93;15.93;;;5.70;99.90;;;;;;5051532;28;20444;-90
2020/12/12 01:39:15;;;;;;;19.80;16.57;;;5.70;99.90;;;;;;5042571;28;20988;-89
2020/12/12 01:41:42;;;;;;;21.70;15.80;;;5.70;99.90;;;;;;5050633;28;20490;-89
2020/12/12 01:44:08;;;;;;;21.47;15.63;;;5.70;99.90;;;;;;5043676;28;20437;-90
2020/12/12 01:46:35;;;;;;;20.10;14.53;;;5.70;99.90;;;;;;5055656;28;20487;-90
2020/12/12 01:49:02;;;;;;;20.23;15.97;;;5.70;99.90;;;;;;5047082;28;20453;-90
2020/12/12 01:51:28;;;;;;;20.90;15.27;;;5.70;99.90;;;;;;5039129;28;20433;-90
2020/12/12 01:53:57;;;;;;;18.27;14.97;;;5.70;99.90;;;;;;5052997;28;20444;-91
2020/12/12 01:56:23;;;;;;;25.10;18.20;;;5.60;99.90;;;;;;5037016;28;20449;-90
2020/12/12 01:58:51;;;;;;;20.73;15.93;;;5.60;99.90;;;;;;5039393;28;20445;-90
2020/12/12 02:01:22;;;;;;;18.00;15.57;;;5.70;99.90;;;;;;5049547;28;20440;-90
2020/12/12 02:03:50;;;;;;;19.80;15.90;;;5.70;99.90;;;;;;5055290;28;20930;-90
2020/12/12 02:06:18;;;;;;;23.20;16.27;;;5.60;99.90;;;;;;5047667;28;20473;-92
2020/12/12 02:08:45;;;;;;;25.73;17.13;;;5.60;99.90;;;;;;5040951;28;20493;-90
2020/12/12 02:11:12;;;;;;;21.80;15.67;;;5.60;99.90;;;;;;5038852;28;20465;-90
2020/12/12 02:13:43;;;;;;;20.97;17.80;;;5.60;99.90;;;;;;5040395;28;20463;-90
2020/12/12 02:16:10;;;;;;;22.13;16.97;;;5.50;99.90;;;;;;5050953;28;20422;-91
2020/12/12 02:18:38;;;;;;;21.17;16.30;;;5.50;99.90;;;;;;5060251;28;20433;-93
2020/12/12 02:21:04;;;;;;;25.50;16.43;;;5.60;99.90;;;;;;5052843;28;20493;-90
2020/12/12 02:23:31;;;;;;;22.97;17.37;;;5.60;99.90;;;;;;5059153;28;20435;-92
2020/12/12 02:25:58;;;;;;;22.70;16.70;;;5.60;99.90;;;;;;5057076;28;20436;-90
2020/12/12 02:28:26;;;;;;;25.20;17.87;;;5.60;99.90;;;;;;5043725;28;20526;-90
2020/12/12 02:30:52;;;;;;;21.40;16.00;;;5.60;99.90;;;;;;5035101;28;20496;-90
2020/12/12 02:33:19;;;;;;;21.83;16.30;;;5.50;99.90;;;;;;5043152;28;20431;-89
2020/12/12 02:35:45;;;;;;;21.43;14.13;;;5.50;99.90;;;;;;5034064;28;20438;-90
2020/12/12 02:38:12;;;;;;;19.97;15.13;;;5.50;99.90;;;;;;5048463;28;20448;-91
2020/12/12 02:40:39;;;;;;;22.67;15.10;;;5.40;99.90;;;;;;5035680;28;20479;-90
2020/12/12 02:43:10;;;;;;;17.80;14.73;;;5.40;99.90;;;;;;5040903;28;20439;-91
2020/12/12 02:45:36;;;;;;;20.30;15.57;;;5.30;99.90;;;;;;5042100;28;20433;-90
2020/12/12 02:48:03;;;;;;;21.13;15.80;;;5.20;99.90;;;;;;5033915;28;21052;-90
2020/12/12 02:50:29;;;;;;;18.50;16.20;;;5.20;99.90;;;;;;5046554;28;20467;-90
2020/12/12 02:52:55;;;;;;;18.93;13.50;;;5.30;99.90;;;;;;5048174;28;20440;-92
2020/12/12 02:55:22;;;;;;;19.93;15.57;;;5.30;99.90;;;;;;5040857;28;20436;-89
2020/12/12 02:57:49;;;;;;;20.97;17.23;;;5.40;99.90;;;;;;5041892;28;20968;-90
2020/12/12 03:00:18;;;;;;;17.63;13.77;;;5.30;99.90;;;;;;5048296;28;20477;-90
2020/12/12 03:02:45;;;;;;;17.43;14.27;;;5.40;99.90;;;;;;5049355;28;20829;-89
2020/12/12 03:05:11;;;;;;;17.90;15.47;;;5.40;99.90;;;;;;5039407;28;20460;-90
2020/12/12 03:07:37;;;;;;;20.47;16.97;;;5.40;99.90;;;;;;5044609;28;21052;-89
2020/12/12 03:10:06;;;;;;;20.97;15.73;;;5.40;99.90;;;;;;5053692;28;20467;-89
2020/12/12 03:12:32;;;;;;;25.93;18.17;;;5.50;99.90;;;;;;5035569;28;20525;-90
2020/12/12 03:14:59;;;;;;;23.23;17.43;;;5.40;99.90;;;;;;5045998;28;20482;-90
2020/12/12 03:17:26;;;;;;;23.87;16.53;;;5.50;99.90;;;;;;5045398;28;20436;-90
2020/12/12 03:19:52;;;;;;;22.20;18.17;;;5.50;99.90;;;;;;5044869;28;20876;-90
2020/12/12 03:22:19;;;;;;;23.33;17.40;;;5.50;99.90;;;;;;5050564;28;20456;-89
2020/12/12 03:24:45;;;;;;;28.13;19.10;;;5.40;99.90;;;;;;5045478;28;20460;-90
2020/12/12 03:27:11;;;;;;;24.70;18.83;;;5.40;99.90;;;;;;5045288;28;20514;-90
2020/12/12 03:29:37;;;;;;;28.00;18.57;;;5.50;99.90;;;;;;5047514;28;20479;-90
2020/12/12 03:32:06;;;;;;;25.20;20.70;;;5.50;99.90;;;;;;5044457;28;20453;-90
2020/12/12 03:34:32;;;;;;;27.90;20.03;;;5.50;99.90;;;;;;5037495;28;20448;-90
2020/12/12 03:36:58;;;;;;;28.60;19.90;;;5.50;99.90;;;;;;5034972;28;20445;-89
2020/12/12 03:39:24;;;;;;;28.33;21.40;;;5.50;99.90;;;;;;5047747;28;20822;-90
2020/12/12 03:41:50;;;;;;;29.30;20.60;;;5.50;99.90;;;;;;5044880;28;20836;-90
2020/12/12 03:44:17;;;;;;;26.23;19.33;;;5.50;99.90;;;;;;5037511;28;20453;-91
2020/12/12 03:46:43;;;;;;;24.47;20.23;;;5.50;99.90;;;;;;5050858;28;20471;-90
2020/12/12 03:49:10;;;;;;;24.90;17.17;;;5.50;99.90;;;;;;5045144;28;20434;-90
2020/12/12 03:51:36;;;;;;;25.73;19.80;;;5.50;99.90;;;;;;5052109;28;20456;-90
2020/12/12 03:54:02;;;;;;;23.10;18.20;;;5.50;99.90;;;;;;5035950;28;20444;-90
2020/12/12 03:56:29;;;;;;;23.17;17.43;;;5.50;99.90;;;;;;5036945;28;20465;-90
2020/12/12 03:58:55;;;;;;;22.43;18.30;;;5.60;99.90;;;;;;5033414;28;20449;-89
2020/12/12 04:01:21;;;;;;;27.40;19.13;;;5.60;99.90;;;;;;5037406;28;20444;-91
2020/12/12 04:03:47;;;;;;;22.47;17.07;;;5.60;99.90;;;;;;5035454;28;20905;-90
2020/12/12 04:06:14;;;;;;;26.17;18.23;;;5.60;99.90;;;;;;5043667;28;20498;-91
2020/12/12 04:08:41;;;;;;;23.30;17.00;;;5.50;99.90;;;;;;5043312;28;20448;-89
2020/12/12 04:11:07;;;;;;;22.33;16.70;;;5.60;99.90;;;;;;5054491;28;20461;-91
2020/12/12 04:13:33;;;;;;;22.53;17.20;;;5.50;99.90;;;;;;5051848;28;20471;-91
2020/12/12 04:15:59;;;;;;;24.97;16.07;;;5.60;99.90;;;;;;5047062;28;20499;-91
2020/12/12 04:18:26;;;;;;;21.93;15.90;;;5.60;99.90;;;;;;5044853;28;20442;-91
2020/12/12 04:20:52;;;;;;;17.23;14.33;;;5.50;99.90;;;;;;5038704;28;20475;-90
2020/12/12 04:23:19;;;;;;;19.13;15.53;;;5.60;99.90;;;;;;5048649;28;20428;-90
2020/12/12 04:25:45;;;;;;;16.10;14.37;;;5.60;99.90;;;;;;5048155;28;20437;-90
2020/12/12 04:28:11;;;;;;;18.10;15.07;;;5.60;99.90;;;;;;5045298;28;20476;-90
2020/12/12 04:30:37;;;;;;;19.00;15.80;;;5.70;99.90;;;;;;5041031;28;20476;-89
2020/12/12 04:33:04;;;;;;;19.13;14.60;;;5.70;99.90;;;;;;5039355;28;20452;-89
2020/12/12 04:35:30;;;;;;;19.03;14.70;;;5.60;99.90;;;;;;5077793;28;20466;-92
2020/12/12 04:37:56;;;;;;;18.87;15.07;;;5.60;99.90;;;;;;5068001;28;20436;-90
2020/12/12 04:40:23;;;;;;;22.43;14.27;;;5.60;99.90;;;;;;5063784;28;20456;-90
2020/12/12 04:42:49;;;;;;;14.83;12.53;;;5.60;99.90;;;;;;5046056;28;20457;-89
2020/12/12 04:45:20;;;;;;;16.63;14.00;;;5.50;99.90;;;;;;5042840;28;20453;-90
2020/12/12 04:47:48;;;;;;;21.73;14.37;;;5.60;99.90;;;;;;5043607;28;20485;-90
2020/12/12 04:50:14;;;;;;;21.87;14.87;;;5.50;99.90;;;;;;5040427;28;20472;-90
2020/12/12 04:52:43;;;;;;;20.37;14.97;;;5.50;99.90;;;;;;5038334;28;20445;-90
2020/12/12 04:55:09;;;;;;;18.03;14.77;;;5.50;99.90;;;;;;5041962;28;20434;-90
2020/12/12 04:57:38;;;;;;;19.17;14.80;;;5.60;99.90;;;;;;5050398;28;20807;-90
2020/12/12 05:00:09;;;;;;;18.50;15.37;;;5.60;99.90;;;;;;5034240;28;20465;-90
2020/12/12 05:02:36;;;;;;;18.70;15.20;;;5.50;99.90;;;;;;5040101;28;20460;-90
2020/12/12 05:05:03;;;;;;;18.77;13.63;;;5.60;99.90;;;;;;5043038;28;20448;-90
2020/12/12 05:07:29;;;;;;;17.53;13.73;;;5.60;99.90;;;;;;5048087;28;20481;-89
2020/12/12 05:09:55;;;;;;;20.43;14.93;;;5.60;99.90;;;;;;5052490;28;20467;-90
2020/12/12 05:12:21;;;;;;;20.13;14.20;;;5.60;99.90;;;;;;5051199;28;20431;-91
2020/12/12 05:14:50;;;;;;;18.67;14.37;;;5.60;99.90;;;;;;5045310;28;20453;-90
2020/12/12 05:17:18;;;;;;;18.50;14.90;;;5.70;99.90;;;;;;5036693;28;20441;-89
2020/12/12 05:19:48;;;;;;;18.40;13.90;;;5.70;99.90;;;;;;5054175;28;20831;-89
2020/12/12 05:22:14;;;;;;;17.63;14.40;;;5.80;99.90;;;;;;5054523;28;20531;-90
2020/12/12 05:24:41;;;;;;;19.10;15.20;;;5.80;99.90;;;;;;5056070;28;20513;-89
2020/12/12 05:27:07;;;;;;;23.27;16.80;;;5.70;99.90;;;;;;5049536;28;20480;-91
2020/12/12 05:29:33;;;;;;;22.90;15.93;;;5.70;99.90;;;;;;5052542;28;20464;-91
2020/12/12 05:32:01;;;;;;;22.47;17.37;;;5.60;99.90;;;;;;5047622;28;20453;-90
2020/12/12 05:34:27;;;;;;;19.67;15.53;;;5.60;99.90;;;;;;5053762;28;20440;-90
2020/12/12 05:36:56;;;;;;;18.30;13.77;;;5.60;99.90;;;;;;5052129;28;20447;-91
2020/12/12 05:39:23;;;;;;;21.03;14.37;;;5.60;99.90;;;;;;5042318;28;20476;-90
2020/12/12 05:41:49;;;;;;;20.80;14.17;;;5.60;99.90;;;;;;5042452;28;20463;-90
2020/12/12 05:44:16;;;;;;;21.00;14.20;;;5.70;99.90;;;;;;5051609;28;20436;-90
2020/12/12 05:46:44;;;;;;;19.47;14.00;;;5.60;99.90;;;;;;5054231;28;20479;-90
2020/12/12 05:49:11;;;;;;;17.37;13.47;;;5.60;99.90;;;;;;5039918;28;20452;-91
2020/12/12 05:51:39;;;;;;;19.73;15.63;;;5.60;99.90;;;;;;5044439;28;20459;-90
2020/12/12 05:54:05;;;;;;;17.60;14.53;;;5.60;99.90;;;;;;5049201;28;20448;-91
2020/12/12 05:56:32;;;;;;;18.90;14.60;;;5.70;99.90;;;;;;5044713;28;20471;-91
2020/12/12 05:59:00;;;;;;;18.50;14.03;;;5.70;99.90;;;;;;5045118;28;20444;-90
2020/12/12 06:01:29;;;;;;;16.80;12.83;;;5.70;99.90;;;;;;5047296;28;20447;-90
2020/12/12 06:04:02;;;;;;;18.63;15.80;;;5.70;99.90;;;;;;5047488;28;20441;-90
2020/12/12 06:06:30;;;;;;;19.53;14.73;;;5.80;99.90;;;;;;5035119;28;20417;-91
2020/12/12 06:09:00;;;;;;;19.77;14.97;;;5.70;99.90;;;;;;5035201;28;20434;-91
2020/12/12 06:11:30;;;;;;;19.57;14.80;;;5.70;99.90;;;;;;5035287;28;20453;-91
2020/12/12 06:13:59;;;;;;;16.93;13.60;;;5.70;99.90;;;;;;5037627;28;20464;-91
2020/12/12 06:16:26;;;;;;;17.20;13.33;;;5.70;99.90;;;;;;5043267;28;20485;-90
2020/12/12 06:19:03;;;;;;;20.67;16.30;;;5.70;99.90;;;;;;5055130;28;20431;-90
2020/12/12 06:21:30;;;;;;;18.60;14.43;;;5.70;99.90;;;;;;5042038;28;20433;-90
2020/12/12 06:23:58;;;;;;;18.80;13.50;;;5.70;99.90;;;;;;5046588;28;20444;-90
2020/12/12 06:26:36;;;;;;;18.67;15.23;;;5.80;99.90;;;;;;5050272;28;20452;-91
2020/12/12 06:29:02;;;;;;;18.07;13.13;;;5.80;99.90;;;;;;5042547;28;20433;-90
2020/12/12 06:31:34;;;;;;;16.30;13.07;;;5.80;99.90;;;;;;5045811;28;20464;-89
2020/12/12 06:34:00;;;;;;;15.90;12.17;;;5.90;99.90;;;;;;5047166;28;20448;-90
2020/12/12 06:36:28;;;;;;;13.53;12.00;;;5.80;99.90;;;;;;5036962;28;20440;-89
2020/12/12 06:39:21;;;;;;;13.77;11.40;;;5.90;99.90;;;;;;5043037;28;20516;-90
2020/12/12 06:41:49;;;;;;;12.03;9.73;;;5.90;99.90;;;;;;5038353;28;20445;-90
2020/12/12 06:44:34;;;;;;;15.00;11.20;;;5.90;99.90;;;;;;5045126;28;20836;-91
2020/12/12 06:47:01;;;;;;;16.67;12.33;;;5.90;99.90;;;;;;5058668;28;20469;-91
2020/12/12 06:49:27;;;;;;;12.70;11.20;;;5.80;99.90;;;;;;5068202;28;20491;-92
2020/12/12 06:51:54;;;;;;;12.70;10.93;;;5.90;99.90;;;;;;5056415;28;20492;-90
2020/12/12 06:54:21;;;;;;;12.73;11.00;;;5.80;99.90;;;;;;5064182;28;20458;-93
2020/12/12 06:56:48;;;;;;;13.90;11.43;;;5.80;99.90;;;;;;5067315;28;20448;-90
2020/12/12 06:59:35;;;;;;;13.67;11.30;;;5.90;99.90;;;;;;5037289;28;21946;-90
2020/12/12 07:02:02;;;;;;;15.00;11.90;;;5.90;99.90;;;;;;5041235;28;20448;-91
2020/12/12 07:04:30;;;;;;;14.10;11.30;;;5.80;99.90;;;;;;5039188;28;20444;-90
2020/12/12 07:07:01;;;;;;;13.50;11.80;;;5.80;99.90;;;;;;5045605;28;20468;-91
2020/12/12 07:09:29;;;;;;;15.43;13.77;;;5.80;99.90;;;;;;5046281;28;20468;-90
2020/12/12 07:11:56;;;;;;;16.27;12.30;;;5.80;99.90;;;;;;5034726;28;20453;-90
2020/12/12 07:14:22;;;;;;;17.60;12.80;;;5.80;99.90;;;;;;5038015;28;20449;-92
2020/12/12 07:16:53;;;;;;;18.10;13.47;;;5.80;99.90;;;;;;5042851;28;20440;-89
2020/12/12 07:19:35;;;;;;;18.50;13.40;;;5.70;99.90;;;;;;5045093;28;20489;-89
2020/12/12 07:22:03;;;;;;;20.37;13.73;;;5.60;99.90;;;;;;5054190;28;20448;-90
2020/12/12 07:24:31;;;;;;;16.87;13.63;;;5.60;99.90;;;;;;5050064;28;20442;-91
2020/12/12 07:26:59;;;;;;;16.00;14.30;;;5.60;99.90;;;;;;5038920;28;20480;-91
2020/12/12 07:29:26;;;;;;;17.57;15.10;;;5.50;99.90;;;;;;5053132;28;20465;-91
2020/12/12 07:31:52;;;;;;;18.40;14.90;;;5.50;99.90;;;;;;5044753;28;20449;-90
2020/12/12 07:34:19;;;;;;;19.27;14.97;;;5.50;99.90;;;;;;5041031;28;20820;-90
2020/12/12 07:36:46;;;;;;;23.00;14.87;;;5.50;99.90;;;;;;5048935;28;20970;-91
2020/12/12 07:39:13;;;;;;;20.90;14.50;;;5.60;99.90;;;;;;5052871;28;20453;-91
2020/12/12 07:41:45;;;;;;;18.30;15.23;;;5.60;99.90;;;;;;5047735;28;20448;-91
2020/12/12 07:44:12;;;;;;;18.83;14.80;;;5.60;99.90;;;;;;5044296;28;20970;-90
2020/12/12 07:46:52;;;;;;;22.90;14.43;;;5.60;99.90;;;;;;5046265;28;20440;-89
2020/12/12 07:49:18;;;;;;;21.27;14.53;;;5.70;99.90;;;;;;5041132;28;20472;-90
2020/12/12 07:51:45;;;;;;;18.00;12.60;;;5.80;99.90;;;;;;5054807;28;20436;-88
2020/12/12 07:54:17;;;;;;;15.03;12.67;;;5.80;99.90;;;;;;5056887;28;20451;-89
2020/12/12 07:56:54;;;;;;;16.93;12.60;;;5.80;99.90;;;;;;5051588;28;20458;-90
2020/12/12 07:59:21;;;;;;;16.40;12.20;;;5.90;99.90;;;;;;5041464;28;20492;-91
2020/12/12 08:01:49;;;;;;;13.23;11.17;;;5.90;99.90;;;;;;5052310;28;20996;-94
2020/12/12 08:04:19;;;;;;;12.90;10.30;;;6.00;99.90;;;;;;5046428;28;20437;-92
2020/12/12 08:06:45;;;;;;;11.10;9.87;;;6.00;99.90;;;;;;5048544;28;20547;-91
2020/12/12 08:09:12;;;;;;;15.20;10.97;;;6.00;99.90;;;;;;5044853;28;20801;-91
2020/12/12 08:11:39;;;;;;;13.43;11.33;;;6.00;99.90;;;;;;5037816;28;20448;-88
2020/12/12 08:14:06;;;;;;;13.43;10.37;;;6.10;99.90;;;;;;5043422;28;20460;-88
2020/12/12 08:16:39;;;;;;;14.73;10.50;;;6.10;99.90;;;;;;5040838;28;20441;-88
2020/12/12 08:19:06;;;;;;;10.77;9.37;;;6.10;99.90;;;;;;5044338;28;20462;-89
2020/12/12 08:21:32;;;;;;;10.77;9.67;;;6.10;99.90;;;;;;5042996;28;20437;-88
2020/12/12 08:24:00;;;;;;;11.33;9.67;;;6.00;99.90;;;;;;5039132;28;20448;-89
2020/12/12 08:26:26;;;;;;;12.57;9.17;;;6.10;99.90;;;;;;5042307;28;20437;-88
2020/12/12 08:28:53;;;;;;;13.20;9.30;;;6.20;99.90;;;;;;5046953;28;20522;-89
2020/12/12 08:31:22;;;;;;;12.23;10.57;;;6.20;99.90;;;;;;5041559;28;20460;-91
2020/12/12 08:33:55;;;;;;;11.70;9.70;;;6.20;99.90;;;;;;5043563;28;20437;-88
2020/12/12 08:36:23;;;;;;;12.00;9.00;;;6.20;99.90;;;;;;5041290;28;20531;-90
2020/12/12 08:38:55;;;;;;;11.80;9.70;;;6.20;99.90;;;;;;5042432;28;20441;-89
2020/12/12 08:41:22;;;;;;;13.70;9.90;;;6.30;99.90;;;;;;5041371;28;20452;-89
2020/12/12 08:43:48;;;;;;;11.20;9.93;;;6.30;99.90;;;;;;5043205;28;20449;-89
2020/12/12 08:46:15;;;;;;;14.27;10.83;;;6.30;99.90;;;;;;5042188;28;20512;-90
2020/12/12 08:48:43;;;;;;;11.17;8.90;;;6.40;99.90;;;;;;5047620;28;20479;-88
2020/12/12 08:51:11;;;;;;;11.60;9.70;;;6.30;99.90;;;;;;5049235;28;20457;-88
2020/12/12 08:53:39;;;;;;;12.10;10.00;;;6.40;99.90;;;;;;5045678;28;20540;-89
2020/12/12 08:56:10;;;;;;;11.90;9.70;;;6.40;99.90;;;;;;5043805;28;21006;-88
2020/12/12 08:58:39;;;;;;;14.10;9.33;;;6.50;99.90;;;;;;5044144;28;20444;-88
2020/12/12 09:01:33;;;;;;;12.13;8.77;;;6.60;99.90;;;;;;5058470;28;20433;-89
2020/12/12 09:04:10;;;;;;;13.33;11.70;;;6.60;99.90;;;;;;5056193;28;20473;-89
2020/12/12 09:06:50;;;;;;;13.37;9.60;;;6.70;99.90;;;;;;5055056;28;20438;-90
2020/12/12 09:09:18;;;;;;;10.97;8.83;;;6.70;99.90;;;;;;5048660;28;20459;-89
2020/12/12 09:11:47;;;;;;;11.10;10.00;;;6.70;99.90;;;;;;5052281;28;20413;-90
2020/12/12 09:14:13;;;;;;;12.40;9.67;;;6.80;99.90;;;;;;5067983;28;20472;-90
2020/12/12 09:16:39;;;;;;;9.97;8.27;;;6.80;99.90;;;;;;5062555;28;20436;-89
2020/12/12 09:19:09;;;;;;;8.07;6.67;;;6.80;99.90;;;;;;5046322;28;20445;-89
2020/12/12 09:21:35;;;;;;;9.53;8.53;;;6.90;99.90;;;;;;5047210;28;20434;-88
2020/12/12 09:24:03;;;;;;;9.67;7.57;;;6.90;99.90;;;;;;5052530;28;20453;-88
2020/12/12 09:26:31;;;;;;;15.13;8.53;;;7.00;99.90;;;;;;5055424;28;20488;-90
2020/12/12 09:28:57;;;;;;;14.60;8.33;;;7.00;99.90;;;;;;5041741;28;20534;-89
2020/12/12 09:31:25;;;;;;;9.83;7.83;;;7.00;99.90;;;;;;5043517;28;20445;-88
2020/12/12 09:33:51;;;;;;;9.63;7.80;;;7.10;99.90;;;;;;5045363;28;20440;-89
2020/12/12 09:36:18;;;;;;;10.20;9.07;;;7.20;99.90;;;;;;5044846;28;20816;-88
2020/12/12 09:38:45;;;;;;;8.53;6.00;;;7.30;99.90;;;;;;5045499;28;20440;-89
2020/12/12 09:41:11;;;;;;;8.03;7.00;;;7.40;99.90;;;;;;5043808;28;20475;-89
2020/12/12 09:43:38;;;;;;;7.17;6.37;;;7.50;99.90;;;;;;5046049;28;20453;-88
2020/12/12 09:46:06;;;;;;;6.83;6.10;;;7.60;99.90;;;;;;5045575;28;20437;-89
2020/12/12 09:48:33;;;;;;;8.33;5.37;;;7.70;99.90;;;;;;5046142;28;20476;-89
2020/12/12 09:50:59;;;;;;;6.23;5.63;;;7.80;99.90;;;;;;5043831;28;21017;-89
2020/12/12 09:53:26;;;;;;;9.10;7.23;;;7.70;99.90;;;;;;5045342;28;20453;-90
2020/12/12 09:55:53;;;;;;;5.70;5.17;;;7.80;99.90;;;;;;5037640;28;20445;-89
2020/12/12 09:58:20;;;;;;;6.40;5.37;;;7.80;99.90;;;;;;5046221;28;20977;-89
2020/12/12 10:00:46;;;;;;;7.00;5.33;;;7.80;99.90;;;;;;5046356;28;20468;-89
2020/12/12 10:03:12;;;;;;;6.50;5.27;;;7.80;99.90;;;;;;5044444;28;20464;-89
2020/12/12 10:05:39;;;;;;;4.80;4.30;;;7.80;99.90;;;;;;5043108;28;20441;-90
2020/12/12 10:08:05;;;;;;;5.97;5.37;;;7.80;99.90;;;;;;5043992;28;20549;-89
2020/12/12 10:10:33;;;;;;;6.17;4.80;;;7.90;99.90;;;;;;5042043;28;20460;-88
2020/12/12 10:13:00;;;;;;;5.30;4.80;;;7.90;99.90;;;;;;5045749;28;20436;-89
2020/12/12 10:15:26;;;;;;;6.70;5.00;;;7.90;99.90;;;;;;5046451;28;20961;-88
2020/12/12 10:17:59;;;;;;;6.03;5.10;;;7.90;99.90;;;;;;5046361;28;20437;-89
2020/12/12 10:20:26;;;;;;;4.63;4.23;;;7.90;99.90;;;;;;5041798;28;20456;-89
2020/12/12 10:22:53;;;;;;;5.40;4.63;;;7.90;99.90;;;;;;5050129;28;20438;-89
2020/12/12 10:25:19;;;;;;;4.90;4.40;;;7.90;99.90;;;;;;5043930;28;20448;-90
2020/12/12 10:27:47;;;;;;;5.13;4.10;;;7.80;99.90;;;;;;5039401;28;20485;-89
2020/12/12 10:30:14;;;;;;;4.77;3.87;;;7.90;99.90;;;;;;5042204;28;20491;-90
2020/12/12 10:32:41;;;;;;;5.20;3.50;;;8.00;99.90;;;;;;5039490;28;20865;-90
2020/12/12 10:35:09;;;;;;;5.20;4.70;;;8.00;99.90;;;;;;5044509;28;20437;-87
2020/12/12 10:37:35;;;;;;;5.50;4.40;;;8.10;99.90;;;;;;5055528;28;20952;-89
2020/12/12 10:40:09;;;;;;;5.40;4.67;;;8.30;99.90;;;;;;5044037;28;20479;-89
2020/12/12 10:42:35;;;;;;;5.60;4.57;;;8.30;99.90;;;;;;5057795;28;20552;-89
2020/12/12 10:45:03;;;;;;;5.93;4.13;;;8.40;99.90;;;;;;5041923;28;20445;-89
2020/12/12 10:47:29;;;;;;;5.20;4.50;;;8.60;99.90;;;;;;5043316;28;20985;-90
2020/12/12 10:49:55;;;;;;;5.03;4.53;;;8.80;99.90;;;;;;5043927;28;20467;-90
2020/12/12 10:52:22;;;;;;;5.83;4.10;;;9.00;99.90;;;;;;5040039;28;20459;-89
2020/12/12 10:54:49;;;;;;;3.70;3.30;;;9.00;99.90;;;;;;5042858;28;20453;-89
2020/12/12 10:57:16;;;;;;;5.63;4.10;;;9.10;99.90;;;;;;5042178;28;20432;-89
2020/12/12 10:59:43;;;;;;;4.40;4.00;;;9.10;99.90;;;;;;5043983;28;20985;-90
2020/12/12 11:02:11;;;;;;;4.07;3.67;;;9.10;99.90;;;;;;5081655;22;20552;-89
2020/12/12 11:04:38;;;;;;;6.37;3.57;;;9.10;99.90;;;;;;5081672;28;21998;-90
2020/12/12 11:07:05;;;;;;;6.43;3.90;;;9.10;99.90;;;;;;5084041;28;20450;-90
2020/12/12 11:09:31;;;;;;;4.73;4.10;;;9.00;99.90;;;;;;5081825;28;20456;-89
2020/12/12 11:11:57;;;;;;;4.57;4.00;;;9.00;99.90;;;;;;5083794;28;20436;-89
2020/12/12 11:14:27;;;;;;;4.83;4.33;;;9.10;99.90;;;;;;5079951;28;20489;-89
2020/12/12 11:16:53;;;;;;;6.03;3.87;;;9.00;99.90;;;;;;5079926;28;20492;-90
2020/12/12 11:19:21;;;;;;;6.40;4.30;;;9.00;99.90;;;;;;5081838;28;20511;-90
2020/12/12 11:21:48;;;;;;;4.10;3.73;;;9.10;99.90;;;;;;5081459;28;20912;-92
2020/12/12 11:24:14;;;;;;;4.43;3.87;;;9.00;99.90;;;;;;5091731;28;20511;-93
2020/12/12 11:26:40;;;;;;;4.50;4.10;;;9.10;99.90;;;;;;5093651;28;20431;-90
2020/12/12 11:29:07;;;;;;;5.10;4.00;;;9.20;99.90;;;;;;5100832;28;20486;-92
2020/12/12 11:31:33;;;;;;;6.67;3.60;;;9.30;99.90;;;;;;5091282;28;20446;-93
2020/12/12 11:34:04;;;;;;;5.07;4.57;;;9.30;99.90;;;;;;5072990;28;20494;-92
2020/12/12 11:36:52;;;;;;;5.00;4.40;;;9.40;99.90;;;;;;5072869;28;20453;-93
2020/12/12 11:39:22;;;;;;;4.87;4.33;;;9.50;99.90;;;;;;5084501;28;20545;-93
2020/12/12 11:44:51;;;;;;;4.20;3.47;;;9.50;99.90;;;;;;5085236;28;20512;-93
2020/12/12 11:47:22;;;;;;;5.23;4.73;;;9.50;99.90;;;;;;5068945;28;20554;-92
2020/12/12 11:49:48;;;;;;;4.77;4.37;;;9.50;99.90;;;;;;5064649;28;20490;-92
2020/12/12 11:52:15;;;;;;;5.20;3.40;;;9.40;99.90;;;;;;5062044;28;20436;-92
2020/12/12 11:54:42;;;;;;;5.90;3.80;;;9.40;99.90;;;;;;5061142;28;20668;-92
2020/12/12 11:57:08;;;;;;;4.07;3.77;;;9.20;99.90;;;;;;5064883;28;20440;-92
2020/12/12 11:59:34;;;;;;;5.30;4.47;;;9.20;99.90;;;;;;5068405;28;20940;-92
2020/12/12 12:02:01;;;;;;;5.13;4.20;;;9.20;99.90;;;;;;5070476;28;20447;-92
2020/12/12 12:04:27;;;;;;;5.00;4.20;;;9.30;99.90;;;;;;5062407;28;20452;-92
2020/12/12 12:06:55;;;;;;;5.40;4.50;;;9.30;99.90;;;;;;5059056;28;20443;-93
2020/12/12 12:09:28;;;;;;;4.27;3.97;;;9.20;99.90;;;;;;5058770;28;20526;-93
2020/12/12 12:11:55;;;;;;;6.90;5.27;;;9.20;99.90;;;;;;5067602;28;20452;-93
2020/12/12 12:14:21;;;;;;;7.63;5.00;;;9.20;99.90;;;;;;5061213;28;20445;-92
2020/12/12 12:16:47;;;;;;;5.80;4.57;;;9.20;99.90;;;;;;5056802;28;20448;-92
2020/12/12 12:19:15;;;;;;;5.40;4.17;;;9.20;99.90;;;;;;5058805;28;20951;-92
2020/12/12 12:21:42;;;;;;;4.10;3.77;;;9.10;99.90;;;;;;5071052;28;20443;-91
2020/12/12 12:24:11;;;;;;;4.60;4.20;;;9.20;99.90;;;;;;5064208;28;20489;-90
2020/12/12 12:26:38;;;;;;;4.80;4.17;;;9.20;99.90;;;;;;5070218;28;20447;-91
2020/12/12 12:29:05;;;;;;;4.30;3.87;;;9.20;99.90;;;;;;5079355;28;20540;-92
2020/12/12 12:31:32;;;;;;;4.57;4.20;;;9.10;99.90;;;;;;5068175;28;20444;-92
2020/12/12 12:33:59;;;;;;;4.53;4.13;;;9.10;99.90;;;;;;5064901;28;20501;-92
2020/12/12 12:36:26;;;;;;;4.50;3.97;;;9.10;99.90;;;;;;5078122;28;20439;-92
2020/12/12 12:38:53;;;;;;;3.90;3.60;;;9.10;99.90;;;;;;5078307;28;20450;-93
2020/12/12 12:41:19;;;;;;;4.07;3.67;;;9.10;99.90;;;;;;5079136;28;20837;-91
2020/12/12 12:43:47;;;;;;;3.93;3.63;;;9.00;99.90;;;;;;5058677;28;20447;-91
2020/12/12 12:46:13;;;;;;;5.93;4.30;;;9.00;99.90;;;;;;5058146;28;20452;-91
2020/12/12 12:48:40;;;;;;;6.17;4.77;;;9.00;99.90;;;;;;5076023;28;20483;-92